Terminal Aerodrome Forecast
Issued by NWS

Home | Current Version | Previous Version | Text Only | Print | Product List | Glossary On
Versions: 1 2 3 4 5 6 7 8 9 10 11 12 13 14 15 16 17 18 19 20 21 22
302
FTUS43 KAPX 222014 AAA
TAFMBL
TAF AMD
KMBL 222014Z 2220/2318 09013KT 6SM -RA BR OVC005
      TEMPO 2220/2224 3SM -RA BR
     FM230000 11008KT 5SM -RA BR OVC008
     FM230200 11004KT 2SM -RA BR OVC005
     FM231000 01008G16KT 1SM -SN BR OVC012
     FM231400 01015G25KT 1 1/2SM -SN BR BLSN OVC015
     FM231700 36016G27KT 5SM -SN BR BLSN OVC020=

USA.gov is the U.S. government's official web portal to all federal, state and local government web resources and services.